sensor_id;sensor_type;location;lat;lon;timestamp;temperature;humidity
4354;DHT22;11018;51.258;6.806;2023-07-30T00:00:40;17.00;86.90
4354;DHT22;11018;51.258;6.806;2023-07-30T00:03:06;17.00;85.30
4354;DHT22;11018;51.258;6.806;2023-07-30T00:05:31;16.90;85.00
4354;DHT22;11018;51.258;6.806;2023-07-30T00:07:57;16.90;85.80
4354;DHT22;11018;51.258;6.806;2023-07-30T00:10:23;16.80;85.10
4354;DHT22;11018;51.258;6.806;2023-07-30T00:12:48;16.80;86.70
4354;DHT22;11018;51.258;6.806;2023-07-30T00:15:14;16.70;86.30
4354;DHT22;11018;51.258;6.806;2023-07-30T00:17:39;16.70;83.90
4354;DHT22;11018;51.258;6.806;2023-07-30T00:20:07;16.70;79.50
4354;DHT22;11018;51.258;6.806;2023-07-30T00:22:33;16.70;79.70
4354;DHT22;11018;51.258;6.806;2023-07-30T00:25:00;16.70;74.80
4354;DHT22;11018;51.258;6.806;2023-07-30T00:27:26;16.80;70.40
4354;DHT22;11018;51.258;6.806;2023-07-30T00:29:51;16.80;72.00
4354;DHT22;11018;51.258;6.806;2023-07-30T00:32:17;16.70;71.80
4354;DHT22;11018;51.258;6.806;2023-07-30T00:34:43;16.60;72.60
4354;DHT22;11018;51.258;6.806;2023-07-30T00:37:09;16.50;74.60
4354;DHT22;11018;51.258;6.806;2023-07-30T00:39:34;16.40;74.40
4354;DHT22;11018;51.258;6.806;2023-07-30T00:42:00;16.30;76.40
4354;DHT22;11018;51.258;6.806;2023-07-30T00:44:26;16.40;74.00
4354;DHT22;11018;51.258;6.806;2023-07-30T00:46:51;16.30;75.80
4354;DHT22;11018;51.258;6.806;2023-07-30T00:49:17;16.20;77.40
4354;DHT22;11018;51.258;6.806;2023-07-30T00:51:44;16.10;80.10
4354;DHT22;11018;51.258;6.806;2023-07-30T00:54:10;16.00;82.30
4354;DHT22;11018;51.258;6.806;2023-07-30T00:56:36;16.00;83.20
4354;DHT22;11018;51.258;6.806;2023-07-30T00:59:02;15.90;83.30
4354;DHT22;11018;51.258;6.806;2023-07-30T01:01:29;15.90;86.50
4354;DHT22;11018;51.258;6.806;2023-07-30T01:03:58;15.80;88.60
4354;DHT22;11018;51.258;6.806;2023-07-30T01:06:24;15.90;87.80
4354;DHT22;11018;51.258;6.806;2023-07-30T01:08:49;15.70;92.40
4354;DHT22;11018;51.258;6.806;2023-07-30T01:11:15;15.70;93.80
4354;DHT22;11018;51.258;6.806;2023-07-30T01:13:42;15.80;94.30
4354;DHT22;11018;51.258;6.806;2023-07-30T01:16:08;15.90;91.80
4354;DHT22;11018;51.258;6.806;2023-07-30T01:18:34;16.10;89.70
4354;DHT22;11018;51.258;6.806;2023-07-30T01:21:00;16.20;87.50
4354;DHT22;11018;51.258;6.806;2023-07-30T01:23:26;16.30;87.70
4354;DHT22;11018;51.258;6.806;2023-07-30T01:26:12;16.40;86.80
4354;DHT22;11018;51.258;6.806;2023-07-30T01:28:49;16.50;84.40
4354;DHT22;11018;51.258;6.806;2023-07-30T01:31:16;16.60;82.70
4354;DHT22;11018;51.258;6.806;2023-07-30T01:33:42;16.60;80.90
4354;DHT22;11018;51.258;6.806;2023-07-30T01:36:11;16.60;79.70
4354;DHT22;11018;51.258;6.806;2023-07-30T01:38:40;16.70;79.80
4354;DHT22;11018;51.258;6.806;2023-07-30T01:41:07;16.80;78.80
4354;DHT22;11018;51.258;6.806;2023-07-30T01:43:32;16.90;77.70
4354;DHT22;11018;51.258;6.806;2023-07-30T01:45:58;17.00;70.90
4354;DHT22;11018;51.258;6.806;2023-07-30T01:48:23;17.00;67.60
4354;DHT22;11018;51.258;6.806;2023-07-30T01:50:49;17.10;65.80
4354;DHT22;11018;51.258;6.806;2023-07-30T01:53:14;17.00;67.20
4354;DHT22;11018;51.258;6.806;2023-07-30T01:55:40;16.90;67.40
4354;DHT22;11018;51.258;6.806;2023-07-30T01:58:09;17.00;66.40
4354;DHT22;11018;51.258;6.806;2023-07-30T02:00:35;16.80;65.20
4354;DHT22;11018;51.258;6.806;2023-07-30T02:03:01;16.70;66.70
4354;DHT22;11018;51.258;6.806;2023-07-30T02:05:26;16.60;69.10
4354;DHT22;11018;51.258;6.806;2023-07-30T02:07:52;16.40;70.80
4354;DHT22;11018;51.258;6.806;2023-07-30T02:10:17;16.20;72.90
4354;DHT22;11018;51.258;6.806;2023-07-30T02:12:43;16.10;73.70
4354;DHT22;11018;51.258;6.806;2023-07-30T02:15:08;16.10;74.60
4354;DHT22;11018;51.258;6.806;2023-07-30T02:17:34;16.10;75.10
4354;DHT22;11018;51.258;6.806;2023-07-30T02:19:59;16.10;73.90
4354;DHT22;11018;51.258;6.806;2023-07-30T02:22:25;16.10;73.10
4354;DHT22;11018;51.258;6.806;2023-07-30T02:24:51;16.30;71.00
4354;DHT22;11018;51.258;6.806;2023-07-30T02:27:16;16.30;70.90
4354;DHT22;11018;51.258;6.806;2023-07-30T02:29:42;16.40;68.40
4354;DHT22;11018;51.258;6.806;2023-07-30T02:32:08;16.50;67.60
4354;DHT22;11018;51.258;6.806;2023-07-30T02:34:33;16.40;68.40
4354;DHT22;11018;51.258;6.806;2023-07-30T02:36:59;16.20;69.60
4354;DHT22;11018;51.258;6.806;2023-07-30T02:39:24;16.20;69.90
4354;DHT22;11018;51.258;6.806;2023-07-30T02:41:50;16.10;69.50
4354;DHT22;11018;51.258;6.806;2023-07-30T02:44:15;16.10;70.30
4354;DHT22;11018;51.258;6.806;2023-07-30T02:46:41;16.10;69.40
4354;DHT22;11018;51.258;6.806;2023-07-30T02:49:06;16.10;69.20
4354;DHT22;11018;51.258;6.806;2023-07-30T02:51:33;16.00;70.00
4354;DHT22;11018;51.258;6.806;2023-07-30T02:54:04;15.90;71.90
4354;DHT22;11018;51.258;6.806;2023-07-30T02:56:29;15.80;71.90
4354;DHT22;11018;51.258;6.806;2023-07-30T02:58:55;15.70;74.30
4354;DHT22;11018;51.258;6.806;2023-07-30T03:01:21;15.70;76.10
4354;DHT22;11018;51.258;6.806;2023-07-30T03:03:46;15.60;77.40
4354;DHT22;11018;51.258;6.806;2023-07-30T03:06:12;15.60;78.30
4354;DHT22;11018;51.258;6.806;2023-07-30T03:08:37;15.50;80.10
4354;DHT22;11018;51.258;6.806;2023-07-30T03:11:03;15.60;79.10
4354;DHT22;11018;51.258;6.806;2023-07-30T03:13:29;15.60;78.60
4354;DHT22;11018;51.258;6.806;2023-07-30T03:15:55;15.50;78.60
4354;DHT22;11018;51.258;6.806;2023-07-30T03:18:20;15.40;80.40
4354;DHT22;11018;51.258;6.806;2023-07-30T03:20:46;15.50;80.90
4354;DHT22;11018;51.258;6.806;2023-07-30T03:23:11;15.50;79.10
4354;DHT22;11018;51.258;6.806;2023-07-30T03:25:37;15.50;78.30
4354;DHT22;11018;51.258;6.806;2023-07-30T03:28:02;15.60;77.30
4354;DHT22;11018;51.258;6.806;2023-07-30T03:30:28;15.70;72.30
4354;DHT22;11018;51.258;6.806;2023-07-30T03:32:54;15.70;73.20
4354;DHT22;11018;51.258;6.806;2023-07-30T03:35:19;15.80;71.10
4354;DHT22;11018;51.258;6.806;2023-07-30T03:37:45;15.90;69.10
4354;DHT22;11018;51.258;6.806;2023-07-30T03:40:10;15.80;67.80
4354;DHT22;11018;51.258;6.806;2023-07-30T03:42:36;15.70;70.40
4354;DHT22;11018;51.258;6.806;2023-07-30T03:45:01;15.80;69.60
4354;DHT22;11018;51.258;6.806;2023-07-30T03:47:27;15.80;69.10
4354;DHT22;11018;51.258;6.806;2023-07-30T03:49:52;15.80;69.40
4354;DHT22;11018;51.258;6.806;2023-07-30T03:52:18;15.80;67.80
4354;DHT22;11018;51.258;6.806;2023-07-30T03:54:44;15.80;69.30
4354;DHT22;11018;51.258;6.806;2023-07-30T03:57:09;15.80;69.40
4354;DHT22;11018;51.258;6.806;2023-07-30T03:59:35;16.00;66.80
4354;DHT22;11018;51.258;6.806;2023-07-30T04:02:00;16.00;66.90
4354;DHT22;11018;51.258;6.806;2023-07-30T04:04:26;16.10;66.60
4354;DHT22;11018;51.258;6.806;2023-07-30T04:06:51;16.20;65.00
4354;DHT22;11018;51.258;6.806;2023-07-30T04:09:17;16.30;59.80
4354;DHT22;11018;51.258;6.806;2023-07-30T04:11:42;16.50;59.50
4354;DHT22;11018;51.258;6.806;2023-07-30T04:14:08;16.50;60.40
4354;DHT22;11018;51.258;6.806;2023-07-30T04:16:34;16.60;58.50
4354;DHT22;11018;51.258;6.806;2023-07-30T04:19:00;16.70;58.20
4354;DHT22;11018;51.258;6.806;2023-07-30T04:21:25;16.90;56.10
4354;DHT22;11018;51.258;6.806;2023-07-30T04:23:51;16.90;56.10
4354;DHT22;11018;51.258;6.806;2023-07-30T04:26:17;17.00;55.00
4354;DHT22;11018;51.258;6.806;2023-07-30T04:28:43;17.00;53.40
4354;DHT22;11018;51.258;6.806;2023-07-30T04:31:08;17.00;54.60
4354;DHT22;11018;51.258;6.806;2023-07-30T04:33:34;17.10;54.90
4354;DHT22;11018;51.258;6.806;2023-07-30T04:36:00;17.10;54.70
4354;DHT22;11018;51.258;6.806;2023-07-30T04:38:25;17.20;53.90
4354;DHT22;11018;51.258;6.806;2023-07-30T04:40:51;17.20;53.70
4354;DHT22;11018;51.258;6.806;2023-07-30T04:43:16;17.20;53.60
4354;DHT22;11018;51.258;6.806;2023-07-30T04:45:42;17.30;54.10
4354;DHT22;11018;51.258;6.806;2023-07-30T04:48:08;17.50;52.90
4354;DHT22;11018;51.258;6.806;2023-07-30T04:50:34;17.40;54.30
4354;DHT22;11018;51.258;6.806;2023-07-30T04:53:00;17.50;53.30
4354;DHT22;11018;51.258;6.806;2023-07-30T04:55:25;17.50;52.40
4354;DHT22;11018;51.258;6.806;2023-07-30T04:57:51;17.40;52.70
4354;DHT22;11018;51.258;6.806;2023-07-30T05:00:16;17.40;53.30
4354;DHT22;11018;51.258;6.806;2023-07-30T05:02:42;17.40;53.00
4354;DHT22;11018;51.258;6.806;2023-07-30T05:05:08;17.50;51.90
4354;DHT22;11018;51.258;6.806;2023-07-30T05:07:33;17.50;52.00
4354;DHT22;11018;51.258;6.806;2023-07-30T05:09:59;17.50;52.10
4354;DHT22;11018;51.258;6.806;2023-07-30T05:12:24;17.50;51.10
4354;DHT22;11018;51.258;6.806;2023-07-30T05:14:50;17.40;50.80
4354;DHT22;11018;51.258;6.806;2023-07-30T05:17:15;17.40;52.60
4354;DHT22;11018;51.258;6.806;2023-07-30T05:19:41;17.30;50.90
4354;DHT22;11018;51.258;6.806;2023-07-30T05:22:06;17.40;48.90
4354;DHT22;11018;51.258;6.806;2023-07-30T05:24:33;17.40;48.70
4354;DHT22;11018;51.258;6.806;2023-07-30T05:26:59;17.30;48.60
4354;DHT22;11018;51.258;6.806;2023-07-30T05:29:24;17.40;48.30
4354;DHT22;11018;51.258;6.806;2023-07-30T05:31:50;17.30;47.80
4354;DHT22;11018;51.258;6.806;2023-07-30T05:34:16;17.30;47.80
4354;DHT22;11018;51.258;6.806;2023-07-30T05:36:41;17.20;48.60
4354;DHT22;11018;51.258;6.806;2023-07-30T05:39:10;17.20;50.00
4354;DHT22;11018;51.258;6.806;2023-07-30T05:41:35;17.30;49.20
4354;DHT22;11018;51.258;6.806;2023-07-30T05:44:01;17.50;48.10
4354;DHT22;11018;51.258;6.806;2023-07-30T05:46:26;17.50;47.50
4354;DHT22;11018;51.258;6.806;2023-07-30T05:48:52;17.40;48.50
4354;DHT22;11018;51.258;6.806;2023-07-30T05:51:18;17.40;47.70
4354;DHT22;11018;51.258;6.806;2023-07-30T05:53:43;17.50;47.80
4354;DHT22;11018;51.258;6.806;2023-07-30T05:56:09;17.50;48.40
4354;DHT22;11018;51.258;6.806;2023-07-30T05:58:35;17.40;48.00
4354;DHT22;11018;51.258;6.806;2023-07-30T06:01:01;17.40;48.70
4354;DHT22;11018;51.258;6.806;2023-07-30T06:03:27;17.50;48.40
4354;DHT22;11018;51.258;6.806;2023-07-30T06:05:52;17.60;48.00
4354;DHT22;11018;51.258;6.806;2023-07-30T06:08:18;17.70;47.20
4354;DHT22;11018;51.258;6.806;2023-07-30T06:10:44;17.80;47.00
4354;DHT22;11018;51.258;6.806;2023-07-30T06:13:09;17.70;47.00
4354;DHT22;11018;51.258;6.806;2023-07-30T06:15:35;17.70;47.60
4354;DHT22;11018;51.258;6.806;2023-07-30T06:18:01;17.80;47.30
4354;DHT22;11018;51.258;6.806;2023-07-30T06:20:28;17.70;47.30
4354;DHT22;11018;51.258;6.806;2023-07-30T06:22:53;17.80;47.50
4354;DHT22;11018;51.258;6.806;2023-07-30T06:25:19;17.80;46.80
4354;DHT22;11018;51.258;6.806;2023-07-30T06:27:44;18.00;45.40
4354;DHT22;11018;51.258;6.806;2023-07-30T06:30:10;18.10;44.70
4354;DHT22;11018;51.258;6.806;2023-07-30T06:32:36;18.10;44.20
4354;DHT22;11018;51.258;6.806;2023-07-30T06:35:02;18.00;44.80
4354;DHT22;11018;51.258;6.806;2023-07-30T06:37:28;18.00;45.50
4354;DHT22;11018;51.258;6.806;2023-07-30T06:39:53;18.00;44.20
4354;DHT22;11018;51.258;6.806;2023-07-30T06:42:19;18.10;44.40
4354;DHT22;11018;51.258;6.806;2023-07-30T06:44:45;18.10;44.60
4354;DHT22;11018;51.258;6.806;2023-07-30T06:47:10;18.10;44.50
4354;DHT22;11018;51.258;6.806;2023-07-30T06:49:36;18.10;44.60
4354;DHT22;11018;51.258;6.806;2023-07-30T06:52:02;18.20;44.10
4354;DHT22;11018;51.258;6.806;2023-07-30T06:54:29;18.20;43.90
4354;DHT22;11018;51.258;6.806;2023-07-30T06:56:55;18.30;44.10
4354;DHT22;11018;51.258;6.806;2023-07-30T06:59:20;18.40;43.30
4354;DHT22;11018;51.258;6.806;2023-07-30T07:01:46;18.60;43.10
4354;DHT22;11018;51.258;6.806;2023-07-30T07:04:11;18.70;42.20
4354;DHT22;11018;51.258;6.806;2023-07-30T07:06:37;18.80;42.50
4354;DHT22;11018;51.258;6.806;2023-07-30T07:09:02;18.90;41.50
4354;DHT22;11018;51.258;6.806;2023-07-30T07:11:28;18.90;42.00
4354;DHT22;11018;51.258;6.806;2023-07-30T07:13:54;18.90;41.30
4354;DHT22;11018;51.258;6.806;2023-07-30T07:16:19;18.90;41.50
4354;DHT22;11018;51.258;6.806;2023-07-30T07:18:45;18.90;40.70
4354;DHT22;11018;51.258;6.806;2023-07-30T07:21:10;18.90;41.50
4354;DHT22;11018;51.258;6.806;2023-07-30T07:23:36;19.00;40.80
4354;DHT22;11018;51.258;6.806;2023-07-30T07:26:02;19.10;41.70
4354;DHT22;11018;51.258;6.806;2023-07-30T07:28:27;19.10;40.40
4354;DHT22;11018;51.258;6.806;2023-07-30T07:30:54;19.20;40.20
4354;DHT22;11018;51.258;6.806;2023-07-30T07:33:20;19.20;40.30
4354;DHT22;11018;51.258;6.806;2023-07-30T07:35:46;19.30;40.10
4354;DHT22;11018;51.258;6.806;2023-07-30T07:38:11;19.50;39.20
4354;DHT22;11018;51.258;6.806;2023-07-30T07:40:38;19.60;38.80
4354;DHT22;11018;51.258;6.806;2023-07-30T07:43:07;19.60;38.20
4354;DHT22;11018;51.258;6.806;2023-07-30T07:45:33;19.80;38.10
4354;DHT22;11018;51.258;6.806;2023-07-30T07:47:59;19.90;37.70
4354;DHT22;11018;51.258;6.806;2023-07-30T07:50:25;19.90;37.70
4354;DHT22;11018;51.258;6.806;2023-07-30T07:52:50;19.80;38.20
4354;DHT22;11018;51.258;6.806;2023-07-30T07:55:16;20.00;37.30
4354;DHT22;11018;51.258;6.806;2023-07-30T07:57:42;19.80;37.70
4354;DHT22;11018;51.258;6.806;2023-07-30T08:00:08;19.60;38.20
4354;DHT22;11018;51.258;6.806;2023-07-30T08:02:34;19.60;38.40
4354;DHT22;11018;51.258;6.806;2023-07-30T08:05:00;19.50;38.70
4354;DHT22;11018;51.258;6.806;2023-07-30T08:07:25;19.50;39.30
4354;DHT22;11018;51.258;6.806;2023-07-30T08:09:51;19.60;38.30
4354;DHT22;11018;51.258;6.806;2023-07-30T08:12:18;19.70;38.50
4354;DHT22;11018;51.258;6.806;2023-07-30T08:14:44;19.70;38.20
4354;DHT22;11018;51.258;6.806;2023-07-30T08:17:10;20.00;37.60
4354;DHT22;11018;51.258;6.806;2023-07-30T08:19:35;19.90;38.00
4354;DHT22;11018;51.258;6.806;2023-07-30T08:22:01;19.80;38.80
4354;DHT22;11018;51.258;6.806;2023-07-30T08:24:26;19.90;37.60
4354;DHT22;11018;51.258;6.806;2023-07-30T08:26:52;19.90;37.30
4354;DHT22;11018;51.258;6.806;2023-07-30T08:29:17;19.90;37.20
4354;DHT22;11018;51.258;6.806;2023-07-30T08:31:43;20.00;36.80
4354;DHT22;11018;51.258;6.806;2023-07-30T08:34:08;20.20;36.60
4354;DHT22;11018;51.258;6.806;2023-07-30T08:36:34;20.50;35.80
4354;DHT22;11018;51.258;6.806;2023-07-30T08:39:01;20.60;35.10
4354;DHT22;11018;51.258;6.806;2023-07-30T08:41:27;20.80;34.00
4354;DHT22;11018;51.258;6.806;2023-07-30T08:43:53;20.70;34.70
4354;DHT22;11018;51.258;6.806;2023-07-30T08:46:18;20.70;35.10
4354;DHT22;11018;51.258;6.806;2023-07-30T08:48:44;20.90;34.00
4354;DHT22;11018;51.258;6.806;2023-07-30T08:51:11;21.10;33.10
4354;DHT22;11018;51.258;6.806;2023-07-30T08:53:38;21.10;32.70
4354;DHT22;11018;51.258;6.806;2023-07-30T08:56:05;21.20;33.00
4354;DHT22;11018;51.258;6.806;2023-07-30T08:58:33;21.10;33.60
4354;DHT22;11018;51.258;6.806;2023-07-30T09:01:01;21.00;33.80
4354;DHT22;11018;51.258;6.806;2023-07-30T09:03:32;20.80;33.60
4354;DHT22;11018;51.258;6.806;2023-07-30T09:05:59;20.60;33.00
4354;DHT22;11018;51.258;6.806;2023-07-30T09:08:25;20.40;33.60
4354;DHT22;11018;51.258;6.806;2023-07-30T09:10:50;20.40;33.80
4354;DHT22;11018;51.258;6.806;2023-07-30T09:13:22;20.70;33.00
4354;DHT22;11018;51.258;6.806;2023-07-30T09:15:49;20.90;32.00
4354;DHT22;11018;51.258;6.806;2023-07-30T09:18:16;21.10;31.70
4354;DHT22;11018;51.258;6.806;2023-07-30T09:20:42;21.30;30.80
4354;DHT22;11018;51.258;6.806;2023-07-30T09:23:09;21.10;31.10
4354;DHT22;11018;51.258;6.806;2023-07-30T09:25:35;20.70;31.20
4354;DHT22;11018;51.258;6.806;2023-07-30T09:28:01;20.40;33.60
4354;DHT22;11018;51.258;6.806;2023-07-30T09:30:27;20.20;34.00
4354;DHT22;11018;51.258;6.806;2023-07-30T09:32:54;20.20;34.20
4354;DHT22;11018;51.258;6.806;2023-07-30T09:35:20;20.30;33.70
4354;DHT22;11018;51.258;6.806;2023-07-30T09:37:47;20.70;32.60
4354;DHT22;11018;51.258;6.806;2023-07-30T09:40:14;20.90;31.40
4354;DHT22;11018;51.258;6.806;2023-07-30T09:42:46;21.10;30.20
4354;DHT22;11018;51.258;6.806;2023-07-30T09:45:22;21.10;30.10
4354;DHT22;11018;51.258;6.806;2023-07-30T09:47:50;21.10;28.50
4354;DHT22;11018;51.258;6.806;2023-07-30T09:50:16;21.10;29.60
4354;DHT22;11018;51.258;6.806;2023-07-30T09:52:42;21.20;30.50
4354;DHT22;11018;51.258;6.806;2023-07-30T09:55:09;21.40;28.90
4354;DHT22;11018;51.258;6.806;2023-07-30T09:57:35;21.80;27.90
4354;DHT22;11018;51.258;6.806;2023-07-30T10:00:02;22.20;26.20
4354;DHT22;11018;51.258;6.806;2023-07-30T10:02:29;22.30;26.50
4354;DHT22;11018;51.258;6.806;2023-07-30T10:04:57;22.30;25.20
4354;DHT22;11018;51.258;6.806;2023-07-30T10:07:24;21.90;26.90
4354;DHT22;11018;51.258;6.806;2023-07-30T10:09:55;21.90;25.30
4354;DHT22;11018;51.258;6.806;2023-07-30T10:12:28;22.00;24.70
4354;DHT22;11018;51.258;6.806;2023-07-30T10:14:56;22.10;25.90
4354;DHT22;11018;51.258;6.806;2023-07-30T10:17:21;22.20;25.30
4354;DHT22;11018;51.258;6.806;2023-07-30T10:19:48;22.60;24.50
4354;DHT22;11018;51.258;6.806;2023-07-30T10:25:00;23.70;21.80
4354;DHT22;11018;51.258;6.806;2023-07-30T10:27:35;23.50;21.00
4354;DHT22;11018;51.258;6.806;2023-07-30T10:35:42;23.40;22.10
4354;DHT22;11018;51.258;6.806;2023-07-30T10:38:30;23.50;20.50
4354;DHT22;11018;51.258;6.806;2023-07-30T10:41:09;23.50;21.50
4354;DHT22;11018;51.258;6.806;2023-07-30T10:43:43;23.30;22.20
4354;DHT22;11018;51.258;6.806;2023-07-30T10:46:10;23.20;22.30
4354;DHT22;11018;51.258;6.806;2023-07-30T10:48:38;23.30;21.00
4354;DHT22;11018;51.258;6.806;2023-07-30T10:51:09;23.20;20.70
4354;DHT22;11018;51.258;6.806;2023-07-30T10:53:35;23.60;18.90
4354;DHT22;11018;51.258;6.806;2023-07-30T10:56:06;23.50;19.10
4354;DHT22;11018;51.258;6.806;2023-07-30T10:58:33;23.20;19.50
4354;DHT22;11018;51.258;6.806;2023-07-30T11:01:02;23.00;20.10
4354;DHT22;11018;51.258;6.806;2023-07-30T11:03:29;23.00;19.50
4354;DHT22;11018;51.258;6.806;2023-07-30T11:05:55;23.20;20.00
4354;DHT22;11018;51.258;6.806;2023-07-30T11:08:41;23.30;19.10
4354;DHT22;11018;51.258;6.806;2023-07-30T11:11:08;23.30;18.90
4354;DHT22;11018;51.258;6.806;2023-07-30T11:13:39;23.20;19.60
4354;DHT22;11018;51.258;6.806;2023-07-30T11:16:05;23.20;20.00
4354;DHT22;11018;51.258;6.806;2023-07-30T11:18:32;23.30;19.50
4354;DHT22;11018;51.258;6.806;2023-07-30T11:23:30;23.80;17.90
4354;DHT22;11018;51.258;6.806;2023-07-30T11:25:55;23.90;17.70
4354;DHT22;11018;51.258;6.806;2023-07-30T11:28:28;24.00;17.50
4354;DHT22;11018;51.258;6.806;2023-07-30T11:30:55;23.80;17.80
4354;DHT22;11018;51.258;6.806;2023-07-30T11:33:21;23.40;18.20
4354;DHT22;11018;51.258;6.806;2023-07-30T11:35:47;23.30;19.10
4354;DHT22;11018;51.258;6.806;2023-07-30T11:38:12;23.50;18.60
4354;DHT22;11018;51.258;6.806;2023-07-30T11:40:39;23.70;18.30
4354;DHT22;11018;51.258;6.806;2023-07-30T11:43:05;23.90;19.00
4354;DHT22;11018;51.258;6.806;2023-07-30T11:45:31;24.00;17.90
4354;DHT22;11018;51.258;6.806;2023-07-30T11:48:17;23.70;18.10
4354;DHT22;11018;51.258;6.806;2023-07-30T11:50:50;23.70;19.10
4354;DHT22;11018;51.258;6.806;2023-07-30T11:53:17;24.00;17.90
4354;DHT22;11018;51.258;6.806;2023-07-30T11:55:43;24.10;17.70
4354;DHT22;11018;51.258;6.806;2023-07-30T11:58:10;23.90;17.90
4354;DHT22;11018;51.258;6.806;2023-07-30T12:00:38;23.70;18.30
4354;DHT22;11018;51.258;6.806;2023-07-30T12:03:05;23.60;18.40
4354;DHT22;11018;51.258;6.806;2023-07-30T12:05:36;23.70;19.40
4354;DHT22;11018;51.258;6.806;2023-07-30T12:08:03;23.80;19.20
4354;DHT22;11018;51.258;6.806;2023-07-30T12:10:46;23.60;19.10
4354;DHT22;11018;51.258;6.806;2023-07-30T12:13:17;23.40;19.10
4354;DHT22;11018;51.258;6.806;2023-07-30T12:15:52;23.20;19.90
4354;DHT22;11018;51.258;6.806;2023-07-30T12:18:19;23.20;19.80
4354;DHT22;11018;51.258;6.806;2023-07-30T12:20:45;23.00;19.00
4354;DHT22;11018;51.258;6.806;2023-07-30T12:23:10;23.00;19.40
4354;DHT22;11018;51.258;6.806;2023-07-30T12:25:36;23.00;18.90
4354;DHT22;11018;51.258;6.806;2023-07-30T12:28:02;23.30;17.60
4354;DHT22;11018;51.258;6.806;2023-07-30T12:30:27;23.20;17.60
4354;DHT22;11018;51.258;6.806;2023-07-30T12:32:53;23.10;17.10
4354;DHT22;11018;51.258;6.806;2023-07-30T12:35:19;23.00;17.10
4354;DHT22;11018;51.258;6.806;2023-07-30T12:37:45;23.40;16.80
4354;DHT22;11018;51.258;6.806;2023-07-30T12:40:11;23.50;15.40
4354;DHT22;11018;51.258;6.806;2023-07-30T12:42:37;23.60;15.80
4354;DHT22;11018;51.258;6.806;2023-07-30T12:45:02;23.50;16.30
4354;DHT22;11018;51.258;6.806;2023-07-30T12:47:28;23.20;16.00
4354;DHT22;11018;51.258;6.806;2023-07-30T12:49:54;23.00;16.90
4354;DHT22;11018;51.258;6.806;2023-07-30T12:52:19;22.70;18.20
4354;DHT22;11018;51.258;6.806;2023-07-30T12:54:45;22.60;18.80
4354;DHT22;11018;51.258;6.806;2023-07-30T12:57:10;22.40;19.00
4354;DHT22;11018;51.258;6.806;2023-07-30T12:59:36;22.40;19.60
4354;DHT22;11018;51.258;6.806;2023-07-30T13:02:01;22.50;19.50
4354;DHT22;11018;51.258;6.806;2023-07-30T13:04:27;22.70;19.40
4354;DHT22;11018;51.258;6.806;2023-07-30T13:06:53;23.00;18.40
4354;DHT22;11018;51.258;6.806;2023-07-30T13:09:19;23.10;17.80
4354;DHT22;11018;51.258;6.806;2023-07-30T13:11:45;23.20;16.90
4354;DHT22;11018;51.258;6.806;2023-07-30T13:14:11;23.10;17.10
4354;DHT22;11018;51.258;6.806;2023-07-30T13:16:37;23.10;17.40
4354;DHT22;11018;51.258;6.806;2023-07-30T13:19:02;23.00;18.50
4354;DHT22;11018;51.258;6.806;2023-07-30T13:21:28;22.80;18.60
4354;DHT22;11018;51.258;6.806;2023-07-30T13:23:53;22.80;19.30
4354;DHT22;11018;51.258;6.806;2023-07-30T13:26:19;22.50;18.20
4354;DHT22;11018;51.258;6.806;2023-07-30T13:28:45;22.70;19.90
4354;DHT22;11018;51.258;6.806;2023-07-30T13:31:10;22.80;18.10
4354;DHT22;11018;51.258;6.806;2023-07-30T13:33:36;23.30;18.50
4354;DHT22;11018;51.258;6.806;2023-07-30T13:36:02;23.70;18.20
4354;DHT22;11018;51.258;6.806;2023-07-30T13:38:28;24.30;17.40
4354;DHT22;11018;51.258;6.806;2023-07-30T13:40:54;24.70;15.90
4354;DHT22;11018;51.258;6.806;2023-07-30T13:43:19;24.80;15.50
4354;DHT22;11018;51.258;6.806;2023-07-30T13:45:45;25.00;15.40
4354;DHT22;11018;51.258;6.806;2023-07-30T13:48:15;25.80;14.70
4354;DHT22;11018;51.258;6.806;2023-07-30T13:50:41;25.10;15.00
4354;DHT22;11018;51.258;6.806;2023-07-30T13:53:06;24.90;16.30
4354;DHT22;11018;51.258;6.806;2023-07-30T13:55:32;24.70;16.20
4354;DHT22;11018;51.258;6.806;2023-07-30T13:57:58;24.60;16.40
4354;DHT22;11018;51.258;6.806;2023-07-30T14:00:23;24.30;16.40
4354;DHT22;11018;51.258;6.806;2023-07-30T14:02:49;25.20;15.10
4354;DHT22;11018;51.258;6.806;2023-07-30T14:05:16;25.10;15.00
4354;DHT22;11018;51.258;6.806;2023-07-30T14:07:42;24.50;15.90
4354;DHT22;11018;51.258;6.806;2023-07-30T14:10:08;24.50;16.00
4354;DHT22;11018;51.258;6.806;2023-07-30T14:12:34;24.40;16.00
4354;DHT22;11018;51.258;6.806;2023-07-30T14:15:00;25.50;14.30
4354;DHT22;11018;51.258;6.806;2023-07-30T14:17:26;26.70;11.50
4354;DHT22;11018;51.258;6.806;2023-07-30T14:19:51;26.80;11.00
4354;DHT22;11018;51.258;6.806;2023-07-30T14:22:17;26.70;11.60
4354;DHT22;11018;51.258;6.806;2023-07-30T14:24:42;26.00;12.60
4354;DHT22;11018;51.258;6.806;2023-07-30T14:27:10;25.40;14.40
4354;DHT22;11018;51.258;6.806;2023-07-30T14:29:35;25.00;15.80
4354;DHT22;11018;51.258;6.806;2023-07-30T14:32:01;25.10;16.40
4354;DHT22;11018;51.258;6.806;2023-07-30T14:34:26;25.80;15.00
4354;DHT22;11018;51.258;6.806;2023-07-30T14:36:52;26.00;14.30
4354;DHT22;11018;51.258;6.806;2023-07-30T14:39:17;25.40;14.90
4354;DHT22;11018;51.258;6.806;2023-07-30T14:41:43;24.80;16.40
4354;DHT22;11018;51.258;6.806;2023-07-30T14:44:09;24.70;16.80
4354;DHT22;11018;51.258;6.806;2023-07-30T14:46:34;24.60;17.40
4354;DHT22;11018;51.258;6.806;2023-07-30T14:49:00;24.50;17.30
4354;DHT22;11018;51.258;6.806;2023-07-30T14:51:25;24.40;17.40
4354;DHT22;11018;51.258;6.806;2023-07-30T14:53:51;24.40;16.60
4354;DHT22;11018;51.258;6.806;2023-07-30T14:56:17;24.20;17.20
4354;DHT22;11018;51.258;6.806;2023-07-30T14:58:42;24.20;17.50
4354;DHT22;11018;51.258;6.806;2023-07-30T15:01:08;24.30;16.50
4354;DHT22;11018;51.258;6.806;2023-07-30T15:03:33;24.30;15.90
4354;DHT22;11018;51.258;6.806;2023-07-30T15:05:59;24.50;15.40
4354;DHT22;11018;51.258;6.806;2023-07-30T15:08:24;24.90;14.20
4354;DHT22;11018;51.258;6.806;2023-07-30T15:10:50;25.60;12.80
4354;DHT22;11018;51.258;6.806;2023-07-30T15:13:15;26.80;11.50
4354;DHT22;11018;51.258;6.806;2023-07-30T15:15:41;27.60;9.30
4354;DHT22;11018;51.258;6.806;2023-07-30T15:18:07;26.80;9.00
4354;DHT22;11018;51.258;6.806;2023-07-30T15:20:33;25.90;10.50
4354;DHT22;11018;51.258;6.806;2023-07-30T15:22:59;25.40;11.80
4354;DHT22;11018;51.258;6.806;2023-07-30T15:25:25;25.10;12.30
4354;DHT22;11018;51.258;6.806;2023-07-30T15:27:51;24.80;13.50
4354;DHT22;11018;51.258;6.806;2023-07-30T15:30:16;24.70;13.70
4354;DHT22;11018;51.258;6.806;2023-07-30T15:32:43;24.60;14.20
4354;DHT22;11018;51.258;6.806;2023-07-30T15:35:10;24.50;14.00
4354;DHT22;11018;51.258;6.806;2023-07-30T15:37:36;25.00;14.10
4354;DHT22;11018;51.258;6.806;2023-07-30T15:40:02;26.40;11.00
4354;DHT22;11018;51.258;6.806;2023-07-30T15:42:28;27.90;8.90
4354;DHT22;11018;51.258;6.806;2023-07-30T15:44:53;29.30;5.60
4354;DHT22;11018;51.258;6.806;2023-07-30T15:47:19;29.00;5.20
4354;DHT22;11018;51.258;6.806;2023-07-30T15:49:44;29.30;4.60
4354;DHT22;11018;51.258;6.806;2023-07-30T15:52:10;28.40;5.70